createdAt,value
2022-09-28T00:00:12.406Z,8.28
2022-09-28T00:20:12.356Z,8.1
2022-09-28T00:40:12.289Z,7.93
2022-09-28T01:00:12.256Z,7.75
2022-09-28T01:20:12.232Z,7.53
2022-09-28T01:40:12.202Z,7.61
2022-09-28T02:20:12.146Z,7.67
2022-09-28T02:40:12.102Z,7.64
2022-09-28T03:40:12.009Z,7.63
2022-09-28T04:00:11.965Z,7.64
2022-09-28T04:40:11.902Z,7.68
2022-09-28T05:00:11.892Z,7.74
2022-09-28T05:40:11.807Z,7.76
2022-09-28T06:00:11.775Z,7.81
2022-09-28T06:20:11.754Z,7.98
2022-09-28T06:40:11.703Z,8.22
2022-09-28T07:00:11.681Z,8.28
2022-09-28T07:20:17.670Z,8.3
2022-09-28T07:40:11.669Z,8.48
2022-09-28T08:00:11.585Z,8.65
2022-09-28T08:20:11.548Z,8.74
2022-09-28T08:40:11.510Z,9
2022-09-28T09:40:11.404Z,10.13
2022-09-28T10:00:11.387Z,10.12
2022-09-28T10:20:11.363Z,10.61
2022-09-28T10:40:11.295Z,10.42
2022-09-28T11:00:11.334Z,10.78
2022-09-28T11:40:11.216Z,12.23
2022-09-28T12:20:11.118Z,12.3
2022-09-28T13:00:18.046Z,12.86
2022-09-28T13:20:11.012Z,12.38
2022-09-28T13:40:10.990Z,13.04
2022-09-28T14:00:10.988Z,13.24
2022-09-28T14:20:10.904Z,13.26
2022-09-28T14:40:10.864Z,13.14
2022-09-28T15:00:10.824Z,14.18
2022-09-28T15:20:10.782Z,14.52
2022-09-28T15:40:10.744Z,13.25
2022-09-28T16:00:10.702Z,12.5
2022-09-28T16:20:10.658Z,12.25
2022-09-28T16:40:17.743Z,11.93
2022-09-28T17:00:10.587Z,11.55
2022-09-28T17:20:17.563Z,11.26
2022-09-28T18:00:10.514Z,10.78
2022-09-28T18:20:10.475Z,10.58
2022-09-28T18:40:10.442Z,10.32
2022-09-28T19:00:10.372Z,10
2022-09-28T19:20:10.338Z,9.74
2022-09-28T19:40:10.306Z,9.29
2022-09-28T20:00:10.281Z,8.57
2022-09-28T20:20:10.278Z,8.22
2022-09-28T20:40:10.254Z,8.34
2022-09-28T21:20:10.139Z,8.69
2022-09-28T21:40:10.112Z,8.94
2022-09-28T22:00:10.075Z,8.83
2022-09-28T22:20:10.041Z,8.57
2022-09-28T22:40:10.005Z,7.97
2022-09-28T23:20:09.959Z,6.77
2022-09-28T23:40:09.911Z,6.35
